Time;durP1;ratioP1;P1;durP2;ratioP2;P2;SDS_P1;SDS_P2;PMS_P1;PMS_P2;Temp;Humidity;BMP_temperature;BMP_pressure;BME280_temperature;BME280_humidity;BME280_pressure;Samples;Min_cycle;Max_cycle;Signal;HPM_P1;HPM_P2
2022/12/03 00:02:06;;;;;;;31.70;20.40;;;2.30;99.90;;;;;;4991431;28;20273;-70
2022/12/03 00:04:32;;;;;;;33.08;21.63;;;2.30;99.90;;;;;;4980756;28;20182;-71
2022/12/03 00:06:58;;;;;;;27.55;20.15;;;2.20;99.90;;;;;;4991122;28;20655;-70
2022/12/03 00:09:23;;;;;;;29.85;19.77;;;2.30;99.90;;;;;;4991162;28;20236;-71
2022/12/03 00:11:49;;;;;;;28.52;20.60;;;2.30;99.90;;;;;;4992455;28;20641;-71
2022/12/03 00:14:14;;;;;;;34.58;22.63;;;2.30;99.90;;;;;;4987149;28;20186;-71
2022/12/03 00:16:40;;;;;;;28.67;20.33;;;2.40;99.90;;;;;;4994035;28;20218;-71
2022/12/03 00:19:06;;;;;;;32.80;21.92;;;2.40;99.90;;;;;;4995002;28;20592;-71
2022/12/03 00:21:32;;;;;;;30.10;20.63;;;2.40;99.90;;;;;;4993494;28;20390;-71
2022/12/03 00:23:58;;;;;;;28.48;19.60;;;2.40;99.90;;;;;;4992622;28;20193;-71
2022/12/03 00:26:24;;;;;;;30.77;20.48;;;2.40;99.90;;;;;;4994594;28;20688;-71
2022/12/03 00:28:49;;;;;;;28.73;20.80;;;2.30;99.90;;;;;;4993544;28;20668;-70
2022/12/03 00:31:15;;;;;;;30.55;19.88;;;2.30;99.90;;;;;;4987128;28;20190;-70
2022/12/03 00:33:40;;;;;;;28.55;20.55;;;2.40;99.90;;;;;;4996899;28;20233;-70
2022/12/03 00:36:06;;;;;;;30.48;20.08;;;2.40;99.90;;;;;;4994234;28;20662;-71
2022/12/03 00:38:32;;;;;;;28.50;20.40;;;2.40;99.90;;;;;;4988768;28;20186;-70
2022/12/03 00:40:57;;;;;;;27.73;18.88;;;2.50;99.90;;;;;;4993559;28;20561;-70
2022/12/03 00:43:23;;;;;;;32.00;21.83;;;2.50;99.90;;;;;;4995931;28;20204;-70
2022/12/03 00:45:48;;;;;;;31.33;21.98;;;2.40;99.90;;;;;;4992830;28;20264;-70
2022/12/03 00:48:14;;;;;;;30.38;21.05;;;2.40;99.90;;;;;;4994349;28;20170;-70
2022/12/03 00:50:40;;;;;;;33.30;21.48;;;2.30;99.90;;;;;;4990589;28;20174;-70
2022/12/03 00:53:05;;;;;;;29.00;20.80;;;2.30;99.90;;;;;;4992597;28;20629;-70
2022/12/03 00:55:31;;;;;;;30.65;20.38;;;2.30;99.90;;;;;;4993993;28;20205;-70
2022/12/03 00:57:56;;;;;;;26.45;20.15;;;2.20;99.90;;;;;;4989059;28;20253;-70
2022/12/03 01:00:24;;;;;;;30.92;21.98;;;2.20;99.90;;;;;;4988703;28;20182;-70
2022/12/03 01:02:52;;;;;;;27.75;20.15;;;2.10;99.90;;;;;;4992909;28;20181;-70
2022/12/03 01:05:19;;;;;;;25.70;19.02;;;2.00;99.90;;;;;;4991269;28;20225;-71
2022/12/03 01:07:45;;;;;;;29.10;20.83;;;2.00;99.90;;;;;;4993732;28;20699;-70
2022/12/03 01:10:12;;;;;;;28.83;20.00;;;2.00;99.90;;;;;;4991312;28;20249;-70
2022/12/03 01:12:38;;;;;;;30.73;20.77;;;2.10;99.90;;;;;;4997235;28;20186;-71
2022/12/03 01:15:04;;;;;;;30.00;20.30;;;2.10;99.90;;;;;;4989683;28;20193;-71
2022/12/03 01:17:30;;;;;;;29.10;19.58;;;2.10;99.90;;;;;;4993840;28;20222;-71
2022/12/03 01:19:57;;;;;;;25.15;18.75;;;2.10;99.90;;;;;;4995129;28;20217;-71
2022/12/03 01:22:23;;;;;;;28.05;19.67;;;2.20;99.90;;;;;;4995360;28;20186;-70
2022/12/03 01:24:49;;;;;;;29.10;19.95;;;2.30;99.90;;;;;;4997231;28;20213;-70
2022/12/03 01:27:15;;;;;;;26.77;19.27;;;2.30;99.90;;;;;;4992901;28;20238;-70
2022/12/03 01:29:40;;;;;;;30.08;20.33;;;2.30;99.90;;;;;;4993151;28;20205;-71
2022/12/03 01:32:18;;;;;;;27.45;19.25;;;2.40;99.90;;;;;;4989391;28;20633;-71
2022/12/03 01:34:52;;;;;;;31.58;20.10;;;2.40;99.90;;;;;;4990163;28;20664;-71
2022/12/03 01:37:19;;;;;;;29.17;20.52;;;2.40;99.90;;;;;;4993529;28;20566;-71
2022/12/03 01:39:45;;;;;;;29.35;20.52;;;2.40;99.90;;;;;;4992385;28;20182;-71
2022/12/03 01:42:26;;;;;;;32.45;22.02;;;2.50;99.90;;;;;;4992159;28;20209;-71
2022/12/03 01:44:53;;;;;;;27.05;19.90;;;2.40;99.90;;;;;;4986435;28;20178;-71
2022/12/03 01:47:23;;;;;;;29.65;21.30;;;2.50;99.90;;;;;;4988077;28;20198;-71
2022/12/03 01:49:54;;;;;;;32.97;23.38;;;2.60;99.90;;;;;;4992231;28;20645;-71
2022/12/03 01:52:23;;;;;;;32.65;21.58;;;2.50;99.90;;;;;;4999785;28;20217;-71
2022/12/03 01:55:00;;;;;;;35.05;22.10;;;2.50;99.90;;;;;;4994255;28;20189;-71
2022/12/03 01:57:28;;;;;;;32.47;21.30;;;2.40;99.90;;;;;;4987470;28;20280;-71
2022/12/03 01:59:56;;;;;;;35.28;22.10;;;2.40;99.90;;;;;;4987847;28;20653;-71
2022/12/03 02:02:24;;;;;;;31.73;21.85;;;2.40;99.90;;;;;;4987522;28;20182;-71
2022/12/03 02:04:54;;;;;;;32.53;21.48;;;2.50;99.90;;;;;;4986609;28;20616;-70
2022/12/03 02:07:19;;;;;;;36.88;22.48;;;2.40;99.90;;;;;;4990884;28;20685;-70
2022/12/03 02:09:45;;;;;;;34.53;23.58;;;2.40;99.90;;;;;;4992009;28;20186;-70
2022/12/03 02:12:13;;;;;;;33.63;21.95;;;2.40;99.90;;;;;;4997012;28;20181;-71
2022/12/03 02:14:39;;;;;;;32.65;21.55;;;2.40;99.90;;;;;;4989704;28;20225;-71
2022/12/03 02:17:04;;;;;;;31.58;22.02;;;2.40;99.90;;;;;;4996269;28;20700;-71
2022/12/03 02:19:30;;;;;;;31.70;21.08;;;2.30;99.90;;;;;;4991651;28;20264;-71
2022/12/03 02:22:14;;;;;;;34.53;23.02;;;2.30;99.90;;;;;;4991162;28;20264;-71
2022/12/03 02:24:54;;;;;;;37.95;22.58;;;2.20;99.90;;;;;;4990974;28;20193;-71
2022/12/03 02:27:20;;;;;;;33.42;20.77;;;2.20;99.90;;;;;;4992449;28;20730;-71
2022/12/03 02:29:46;;;;;;;34.38;21.85;;;2.30;99.90;;;;;;4992384;28;20182;-71
2022/12/03 02:32:11;;;;;;;37.17;23.63;;;2.40;99.90;;;;;;4989532;28;20186;-71
2022/12/03 02:34:43;;;;;;;36.75;23.17;;;2.30;99.90;;;;;;4991489;28;20185;-70
2022/12/03 02:37:31;;;;;;;35.40;22.30;;;2.30;99.90;;;;;;4992311;28;20260;-71
2022/12/03 02:40:02;;;;;;;34.60;23.48;;;2.30;99.90;;;;;;4984256;28;20178;-71
2022/12/03 02:42:35;;;;;;;34.00;22.05;;;2.20;99.90;;;;;;4991284;28;20205;-71
2022/12/03 02:45:12;;;;;;;33.75;23.27;;;2.30;99.90;;;;;;4990991;28;20202;-71
2022/12/03 02:48:00;;;;;;;34.30;22.00;;;2.30;99.90;;;;;;4992778;28;20285;-71
2022/12/03 02:50:31;;;;;;;35.13;21.63;;;2.30;99.90;;;;;;4988984;28;20189;-70
2022/12/03 02:52:59;;;;;;;29.25;20.50;;;2.30;99.90;;;;;;4986385;28;20670;-70
2022/12/03 02:55:26;;;;;;;36.35;22.90;;;2.30;99.90;;;;;;4989529;28;20192;-70
2022/12/03 02:57:52;;;;;;;33.60;22.63;;;2.30;99.90;;;;;;4994335;28;20182;-70
2022/12/03 03:00:18;;;;;;;32.63;22.02;;;2.20;99.90;;;;;;4991561;28;20535;-70
2022/12/03 03:02:46;;;;;;;30.02;21.52;;;2.30;99.90;;;;;;4985847;28;20706;-71
2022/12/03 03:05:13;;;;;;;32.63;21.92;;;2.30;99.90;;;;;;4990510;28;20216;-71
2022/12/03 03:07:39;;;;;;;30.08;20.80;;;2.20;99.90;;;;;;4990412;28;20201;-71
2022/12/03 03:10:08;;;;;;;29.50;20.98;;;2.20;99.90;;;;;;4986256;28;20649;-71
2022/12/03 03:12:33;;;;;;;32.65;22.67;;;2.20;99.90;;;;;;4996681;28;20185;-71
2022/12/03 03:14:59;;;;;;;31.58;20.33;;;2.30;99.90;;;;;;4988288;28;20174;-71
2022/12/03 03:17:25;;;;;;;32.25;21.70;;;2.30;99.90;;;;;;4989825;28;20205;-70
2022/12/03 03:19:51;;;;;;;32.00;20.42;;;2.30;99.90;;;;;;4987626;28;20182;-70
2022/12/03 03:22:17;;;;;;;35.03;21.65;;;2.30;99.90;;;;;;4991869;28;20269;-70
2022/12/03 03:24:43;;;;;;;31.48;21.05;;;2.30;99.90;;;;;;4982925;28;20915;-70
2022/12/03 03:27:09;;;;;;;30.95;20.92;;;2.20;99.90;;;;;;4988831;28;20216;-70
2022/12/03 03:29:35;;;;;;;29.05;20.60;;;2.40;99.90;;;;;;4984071;28;21694;-70
2022/12/03 03:32:01;;;;;;;30.98;21.38;;;2.40;99.90;;;;;;4987584;28;20196;-70
2022/12/03 03:34:29;;;;;;;33.80;22.73;;;2.40;99.90;;;;;;4987484;28;20181;-70
2022/12/03 03:36:54;;;;;;;36.00;22.67;;;2.30;99.90;;;;;;4985251;28;20194;-71
2022/12/03 03:39:20;;;;;;;35.15;23.00;;;2.40;99.90;;;;;;4991554;28;20178;-71
2022/12/03 03:41:46;;;;;;;36.85;24.52;;;2.40;99.90;;;;;;4990126;28;20582;-70
2022/12/03 03:44:12;;;;;;;31.25;21.10;;;2.40;99.90;;;;;;4990217;28;20208;-70
2022/12/03 03:46:39;;;;;;;35.33;22.30;;;2.50;99.90;;;;;;4990392;28;20237;-70
2022/12/03 03:49:05;;;;;;;32.85;21.50;;;2.50;99.90;;;;;;4988593;28;20181;-71
2022/12/03 03:51:33;;;;;;;34.60;22.85;;;2.40;99.90;;;;;;4995318;28;20657;-70
2022/12/03 03:54:00;;;;;;;36.80;22.85;;;2.40;99.90;;;;;;4995107;28;20184;-70
2022/12/03 03:56:26;;;;;;;37.13;23.50;;;2.40;99.90;;;;;;4995486;28;20193;-70
2022/12/03 03:58:51;;;;;;;34.13;21.25;;;2.40;99.90;;;;;;4995138;28;20397;-70
2022/12/03 04:01:18;;;;;;;33.03;22.40;;;2.40;99.90;;;;;;4986636;28;20194;-70
2022/12/03 04:03:43;;;;;;;32.72;22.20;;;2.40;99.90;;;;;;4993794;28;20174;-70
2022/12/03 04:06:09;;;;;;;33.05;22.23;;;2.40;99.90;;;;;;4992806;28;20218;-71
2022/12/03 04:08:35;;;;;;;33.40;22.20;;;2.50;99.90;;;;;;5001226;28;20189;-71
2022/12/03 04:13:45;;;;;;;34.28;22.08;;;2.50;99.90;;;;;;4979834;28;20566;-71
2022/12/03 04:16:10;;;;;;;30.08;21.00;;;2.50;99.90;;;;;;4996279;28;20220;-71
2022/12/03 04:18:42;;;;;;;33.35;20.70;;;2.50;99.90;;;;;;4994873;28;20186;-71
2022/12/03 04:23:56;;;;;;;32.97;21.08;;;2.60;99.90;;;;;;4986669;28;20200;-71
2022/12/03 04:29:06;;;;;;;37.50;20.92;;;2.40;99.90;;;;;;4987498;28;20683;-71
2022/12/03 04:37:00;;;;;;;31.17;22.33;;;2.40;99.90;;;;;;4989200;28;20256;-71
2022/12/03 04:39:25;;;;;;;33.63;20.88;;;2.40;99.90;;;;;;4993247;28;20606;-71
2022/12/03 04:41:51;;;;;;;37.03;22.25;;;2.40;99.90;;;;;;4993446;28;20197;-71
2022/12/03 04:44:32;;;;;;;31.13;21.38;;;2.50;99.90;;;;;;4990994;28;20201;-71
2022/12/03 04:47:06;;;;;;;35.70;22.63;;;2.40;99.90;;;;;;4994363;28;20210;-71
2022/12/03 04:49:33;;;;;;;32.63;21.13;;;2.50;99.90;;;;;;4993307;28;20174;-71
2022/12/03 04:51:59;;;;;;;33.70;21.08;;;2.50;99.90;;;;;;4994171;28;20181;-71
2022/12/03 04:54:25;;;;;;;34.35;21.73;;;2.50;99.90;;;;;;4991006;28;20184;-70
2022/12/03 04:56:50;;;;;;;35.65;22.98;;;2.50;99.90;;;;;;4993939;28;20222;-71
2022/12/03 04:59:16;;;;;;;32.97;20.20;;;2.50;99.90;;;;;;4992633;28;20209;-70
2022/12/03 05:01:42;;;;;;;34.35;21.75;;;2.40;99.90;;;;;;4991154;28;20190;-70
2022/12/03 05:04:08;;;;;;;32.08;21.50;;;2.50;99.90;;;;;;4989406;28;20251;-71
2022/12/03 05:06:34;;;;;;;32.35;21.50;;;2.50;99.90;;;;;;4991270;28;20210;-70
2022/12/03 05:09:00;;;;;;;31.85;21.45;;;2.60;99.90;;;;;;4992815;28;20181;-71
2022/12/03 05:11:25;;;;;;;31.55;21.45;;;2.60;99.90;;;;;;5000925;28;20178;-70
2022/12/03 05:13:51;;;;;;;29.05;20.63;;;2.50;99.90;;;;;;4993765;28;20178;-70
2022/12/03 05:16:17;;;;;;;31.92;20.33;;;2.50;99.90;;;;;;4995208;28;20228;-70
2022/12/03 05:18:43;;;;;;;30.30;19.73;;;2.50;99.90;;;;;;4993217;28;20256;-70
2022/12/03 05:21:08;;;;;;;32.55;21.35;;;2.50;99.90;;;;;;4993298;28;20225;-70
2022/12/03 05:23:34;;;;;;;32.47;21.40;;;2.40;99.90;;;;;;4989315;28;20183;-70
2022/12/03 05:25:59;;;;;;;32.08;21.25;;;2.50;99.90;;;;;;4993530;28;20281;-70
2022/12/03 05:28:25;;;;;;;31.65;20.25;;;2.40;99.90;;;;;;4993874;28;20181;-70
2022/12/03 05:30:51;;;;;;;27.48;19.25;;;2.40;99.90;;;;;;4990919;28;20173;-71
2022/12/03 05:33:17;;;;;;;26.40;18.20;;;2.40;99.90;;;;;;4989735;28;20182;-71
2022/12/03 05:35:42;;;;;;;27.65;18.38;;;2.50;99.90;;;;;;4992684;28;20244;-71
2022/12/03 05:38:08;;;;;;;30.27;19.38;;;2.50;99.90;;;;;;4993296;28;20273;-71
2022/12/03 05:40:34;;;;;;;27.05;18.05;;;2.60;99.90;;;;;;4990502;28;20220;-71
2022/12/03 05:43:02;;;;;;;28.50;17.65;;;2.60;99.90;;;;;;4983111;28;20252;-70
2022/12/03 05:45:39;;;;;;;28.90;19.92;;;2.60;99.90;;;;;;4993180;28;20239;-71
2022/12/03 05:48:08;;;;;;;32.83;21.08;;;2.60;99.90;;;;;;4991182;28;20178;-71
2022/12/03 05:50:36;;;;;;;26.83;18.25;;;2.60;99.90;;;;;;4987792;28;20614;-71
2022/12/03 05:53:03;;;;;;;28.90;19.88;;;2.60;99.90;;;;;;4987103;28;20174;-71
2022/12/03 05:55:28;;;;;;;28.50;20.20;;;2.70;99.90;;;;;;4982509;28;20186;-71
2022/12/03 05:57:54;;;;;;;33.15;19.67;;;2.80;99.90;;;;;;4986646;28;20606;-71
2022/12/03 06:00:26;;;;;;;30.08;19.73;;;2.90;99.90;;;;;;4985159;28;20701;-71
2022/12/03 06:02:52;;;;;;;27.20;19.67;;;2.90;99.90;;;;;;4981524;28;20236;-72
2022/12/03 06:05:19;;;;;;;29.77;20.00;;;2.80;99.90;;;;;;4982260;28;20260;-71
2022/12/03 06:07:45;;;;;;;30.17;20.60;;;2.90;99.90;;;;;;4983325;28;20187;-71
2022/12/03 06:10:13;;;;;;;28.88;20.10;;;2.70;99.90;;;;;;4992888;28;20178;-71
2022/12/03 06:12:39;;;;;;;28.92;19.80;;;2.70;99.90;;;;;;4990919;28;20209;-71
2022/12/03 06:15:05;;;;;;;28.80;18.77;;;2.70;99.90;;;;;;4982013;28;20170;-71
2022/12/03 06:17:31;;;;;;;30.63;20.65;;;2.70;99.90;;;;;;4989741;28;20223;-71
2022/12/03 06:19:57;;;;;;;28.42;19.05;;;2.90;99.90;;;;;;4989092;28;20174;-71
2022/12/03 06:22:22;;;;;;;26.65;18.55;;;3.00;99.90;;;;;;4984891;28;20539;-70
2022/12/03 06:24:49;;;;;;;31.05;20.08;;;3.10;99.90;;;;;;4988419;28;20885;-70
2022/12/03 06:27:14;;;;;;;25.13;17.55;;;3.10;99.90;;;;;;4986705;28;20202;-71
2022/12/03 06:29:40;;;;;;;29.00;18.77;;;3.00;99.90;;;;;;4984076;28;20274;-70
2022/12/03 06:32:06;;;;;;;28.92;19.17;;;3.00;99.90;;;;;;4991775;28;20174;-71
2022/12/03 06:34:32;;;;;;;30.88;18.60;;;3.00;99.90;;;;;;4992636;28;20184;-71
2022/12/03 06:36:57;;;;;;;27.83;18.65;;;2.90;99.90;;;;;;4985488;28;20193;-70
2022/12/03 06:39:23;;;;;;;29.20;19.60;;;2.90;99.90;;;;;;4985124;28;20249;-70
2022/12/03 06:41:48;;;;;;;26.85;18.75;;;2.80;99.90;;;;;;4985206;28;20186;-70
2022/12/03 06:44:14;;;;;;;29.08;18.88;;;2.70;99.90;;;;;;4979846;28;20194;-71
2022/12/03 06:46:40;;;;;;;29.27;18.48;;;2.70;99.90;;;;;;4990648;28;20642;-71
2022/12/03 06:49:08;;;;;;;24.00;17.83;;;2.70;99.90;;;;;;4983258;28;20186;-71
2022/12/03 06:51:33;;;;;;;28.38;18.70;;;2.60;99.90;;;;;;4991674;28;20178;-70
2022/12/03 06:53:59;;;;;;;26.17;18.67;;;2.40;99.90;;;;;;4988071;28;20174;-71
2022/12/03 06:56:25;;;;;;;25.92;18.13;;;2.40;99.90;;;;;;4988320;28;20298;-71
2022/12/03 06:58:50;;;;;;;26.55;18.60;;;2.40;99.90;;;;;;4988415;28;20186;-71
2022/12/03 07:01:16;;;;;;;26.25;18.48;;;2.40;99.90;;;;;;4978474;28;20256;-72
2022/12/03 07:03:41;;;;;;;29.15;19.85;;;2.40;99.90;;;;;;4989277;28;20663;-72
2022/12/03 07:06:07;;;;;;;28.50;18.52;;;2.30;99.90;;;;;;4985081;28;20213;-72
2022/12/03 07:08:32;;;;;;;24.48;17.55;;;2.40;99.90;;;;;;4993371;28;20178;-75
2022/12/03 07:10:58;;;;;;;26.25;18.15;;;2.50;99.90;;;;;;4985175;28;20547;-74
2022/12/03 07:13:24;;;;;;;27.67;18.48;;;2.50;99.90;;;;;;4998237;28;20260;-74
2022/12/03 07:15:49;;;;;;;30.23;19.08;;;2.60;99.90;;;;;;4989733;28;20198;-74
2022/12/03 07:18:15;;;;;;;27.13;17.30;;;2.60;99.90;;;;;;4993937;28;20770;-74
2022/12/03 07:20:40;;;;;;;28.65;18.45;;;2.60;99.90;;;;;;4991220;28;20252;-74
2022/12/03 07:23:06;;;;;;;27.77;19.08;;;2.40;99.90;;;;;;4999169;28;20551;-74
2022/12/03 07:25:31;;;;;;;25.95;18.60;;;2.50;99.90;;;;;;4991555;28;20352;-73
2022/12/03 07:27:57;;;;;;;27.45;18.60;;;2.50;99.90;;;;;;4992967;28;20177;-73
2022/12/03 07:30:24;;;;;;;22.90;17.05;;;2.50;99.90;;;;;;4987657;28;20860;-73
2022/12/03 07:32:50;;;;;;;26.40;17.85;;;2.50;99.90;;;;;;4985573;28;20174;-73
2022/12/03 07:35:16;;;;;;;25.42;17.55;;;2.60;99.90;;;;;;4983345;28;20182;-72
2022/12/03 07:37:41;;;;;;;24.30;16.45;;;2.60;99.90;;;;;;4986126;28;20178;-72
2022/12/03 07:40:08;;;;;;;23.83;16.60;;;2.70;99.90;;;;;;4991923;28;20229;-72
2022/12/03 07:42:34;;;;;;;24.05;16.70;;;2.50;99.90;;;;;;4983912;28;20229;-73
2022/12/03 07:44:59;;;;;;;22.48;16.52;;;2.60;99.90;;;;;;4988160;28;20198;-72
2022/12/03 07:47:25;;;;;;;25.25;17.45;;;2.70;99.90;;;;;;4984072;28;20239;-73
2022/12/03 07:49:51;;;;;;;25.27;17.48;;;2.70;99.90;;;;;;4981439;28;20221;-72
2022/12/03 07:52:16;;;;;;;25.05;16.02;;;2.80;99.90;;;;;;4985172;28;20256;-72
2022/12/03 07:54:42;;;;;;;25.08;17.48;;;2.80;99.90;;;;;;4988178;28;20272;-72
2022/12/03 07:57:07;;;;;;;23.17;16.95;;;2.70;99.90;;;;;;4985014;28;20649;-72
2022/12/03 07:59:33;;;;;;;23.05;16.33;;;2.80;99.90;;;;;;4988925;28;20181;-72
2022/12/03 08:01:59;;;;;;;22.40;15.88;;;2.80;99.90;;;;;;4990955;28;20245;-72
2022/12/03 08:04:24;;;;;;;25.98;16.80;;;2.60;99.90;;;;;;4990079;28;20181;-72
2022/12/03 08:06:50;;;;;;;20.15;15.05;;;2.60;99.90;;;;;;4987032;28;20248;-72
2022/12/03 08:09:15;;;;;;;27.35;16.73;;;2.60;99.90;;;;;;4984912;28;20249;-72
2022/12/03 08:11:42;;;;;;;26.50;17.58;;;2.70;99.90;;;;;;4982895;28;20215;-72
2022/12/03 08:14:15;;;;;;;21.80;15.85;;;2.70;99.90;;;;;;4985351;28;20245;-72
2022/12/03 08:16:42;;;;;;;24.55;17.17;;;2.70;99.90;;;;;;4988471;28;20289;-72
2022/12/03 08:19:10;;;;;;;23.17;16.88;;;2.70;99.90;;;;;;4989452;28;20230;-72
2022/12/03 08:21:36;;;;;;;26.08;18.27;;;2.70;99.90;;;;;;4990875;28;20178;-73
2022/12/03 08:24:16;;;;;;;24.38;17.38;;;2.70;99.90;;;;;;4989486;28;20182;-72
2022/12/03 08:26:44;;;;;;;23.60;17.00;;;2.80;99.90;;;;;;4983390;28;20750;-73
2022/12/03 08:29:12;;;;;;;26.13;17.30;;;2.90;99.90;;;;;;4989708;28;20194;-73
2022/12/03 08:31:38;;;;;;;27.23;16.85;;;2.80;99.90;;;;;;4991357;28;20178;-73
2022/12/03 08:34:19;;;;;;;23.50;16.33;;;2.80;99.90;;;;;;4987884;28;20178;-74
2022/12/03 08:36:46;;;;;;;27.48;17.60;;;2.90;99.90;;;;;;4985367;28;20201;-73
2022/12/03 08:39:33;;;;;;;23.13;16.88;;;3.00;99.90;;;;;;4994143;28;20178;-73
2022/12/03 08:45:27;;;;;;;24.35;16.55;;;3.00;99.90;;;;;;4984438;28;20244;-73
2022/12/03 08:47:56;;;;;;;24.48;16.48;;;2.90;99.90;;;;;;4975611;28;20184;-73
2022/12/03 08:50:37;;;;;;;24.98;17.33;;;2.90;99.90;;;;;;4983362;28;20213;-73
2022/12/03 08:53:24;;;;;;;23.85;15.98;;;2.90;99.90;;;;;;4982843;28;20185;-74
2022/12/03 08:55:56;;;;;;;21.67;15.70;;;2.90;99.90;;;;;;4983457;28;20208;-73
2022/12/03 08:58:33;;;;;;;24.83;16.85;;;3.00;99.90;;;;;;4985176;28;20185;-73
2022/12/03 09:01:45;;;;;;;21.20;15.13;;;3.00;99.90;;;;;;4990332;28;20186;-73
2022/12/03 09:04:33;;;;;;;23.70;16.10;;;2.90;99.90;;;;;;4987445;28;20190;-73
2022/12/03 09:06:59;;;;;;;21.05;15.52;;;3.00;99.90;;;;;;4986855;28;20590;-73
2022/12/03 09:09:25;;;;;;;19.83;15.73;;;2.90;99.90;;;;;;4990219;28;20193;-72
2022/12/03 09:11:51;;;;;;;21.38;15.25;;;3.00;99.90;;;;;;4992296;28;20575;-73
2022/12/03 09:14:16;;;;;;;21.98;15.45;;;3.00;99.90;;;;;;4977493;28;20182;-73
2022/12/03 09:16:42;;;;;;;23.35;16.80;;;3.10;99.90;;;;;;4977685;28;20578;-73
2022/12/03 09:19:08;;;;;;;21.58;16.27;;;3.10;99.90;;;;;;4991951;28;20248;-73
2022/12/03 09:21:34;;;;;;;23.88;16.55;;;3.20;99.90;;;;;;4986228;28;20269;-72
2022/12/03 09:24:00;;;;;;;26.10;17.52;;;3.30;99.90;;;;;;4989910;28;20189;-72
2022/12/03 09:26:27;;;;;;;22.83;16.52;;;3.30;99.90;;;;;;4992156;28;20214;-72
2022/12/03 09:28:52;;;;;;;22.52;16.10;;;3.30;99.90;;;;;;4992533;28;20556;-72
2022/12/03 09:31:18;;;;;;;20.45;15.20;;;3.10;99.90;;;;;;4985914;28;20182;-72
2022/12/03 09:33:44;;;;;;;22.80;16.67;;;3.20;99.90;;;;;;4991412;28;20682;-72
2022/12/03 09:36:09;;;;;;;19.35;15.30;;;3.30;99.90;;;;;;4995941;28;20236;-73
2022/12/03 09:38:35;;;;;;;20.90;15.55;;;3.10;99.90;;;;;;4993534;28;20194;-72
2022/12/03 09:41:01;;;;;;;20.13;15.48;;;3.10;99.90;;;;;;4991208;28;20182;-72
2022/12/03 09:43:29;;;;;;;21.90;15.48;;;3.10;99.90;;;;;;4986225;28;20193;-72
2022/12/03 09:45:55;;;;;;;20.38;15.25;;;3.20;99.90;;;;;;4988414;28;20592;-72
2022/12/03 09:48:21;;;;;;;23.63;15.30;;;3.30;99.90;;;;;;4993190;28;20182;-72
2022/12/03 09:50:47;;;;;;;20.95;15.48;;;3.40;99.90;;;;;;4991301;28;20541;-72
2022/12/03 09:53:19;;;;;;;20.75;15.15;;;3.30;99.90;;;;;;4987476;28;20468;-72
2022/12/03 09:55:46;;;;;;;21.02;15.80;;;3.30;99.90;;;;;;4980749;28;20245;-73
2022/12/03 09:58:15;;;;;;;22.52;15.70;;;3.30;99.90;;;;;;4977734;28;20202;-72
2022/12/03 10:00:44;;;;;;;20.17;14.40;;;3.30;99.90;;;;;;4995727;28;20208;-73
2022/12/03 10:03:12;;;;;;;20.63;15.50;;;3.50;99.90;;;;;;4988872;28;20186;-72
2022/12/03 10:05:39;;;;;;;21.17;15.63;;;3.60;99.90;;;;;;4991868;28;20213;-72
2022/12/03 10:08:11;;;;;;;18.75;14.52;;;3.70;99.90;;;;;;4988257;28;20793;-72
2022/12/03 10:10:38;;;;;;;19.92;14.95;;;3.70;99.90;;;;;;4978263;28;20218;-72
2022/12/03 10:13:05;;;;;;;20.42;14.95;;;3.70;99.90;;;;;;4979582;28;20261;-72
2022/12/03 10:15:32;;;;;;;21.83;15.13;;;3.70;99.90;;;;;;4975661;28;20190;-72
2022/12/03 10:17:58;;;;;;;18.20;13.82;;;3.60;99.90;;;;;;4985903;28;20178;-72
2022/12/03 10:20:24;;;;;;;16.85;14.07;;;3.50;99.90;;;;;;4982045;28;20269;-72
2022/12/03 10:22:50;;;;;;;16.95;13.85;;;3.60;99.90;;;;;;4973953;28;20273;-72
2022/12/03 10:25:18;;;;;;;16.90;13.00;;;3.60;99.90;;;;;;4971956;28;20261;-72
2022/12/03 10:27:57;;;;;;;17.98;13.25;;;3.70;99.90;;;;;;4976182;28;20737;-72
2022/12/03 10:30:27;;;;;;;20.88;15.90;;;3.80;99.90;;;;;;4988418;28;20181;-72
2022/12/03 10:32:54;;;;;;;18.67;13.73;;;3.90;99.90;;;;;;4977509;28;20170;-72
2022/12/03 10:35:22;;;;;;;16.20;13.57;;;3.70;99.90;;;;;;4985266;28;20724;-72
2022/12/03 10:38:18;;;;;;;15.57;12.63;;;3.70;99.90;;;;;;4985507;28;20174;-72
2022/12/03 10:40:44;;;;;;;15.88;12.38;;;3.70;99.90;;;;;;4987015;28;20174;-72
2022/12/03 10:43:19;;;;;;;15.63;12.13;;;3.70;99.90;;;;;;4984022;28;20245;-71
2022/12/03 10:45:45;;;;;;;13.70;11.82;;;3.60;99.90;;;;;;4978494;28;20217;-71
2022/12/03 10:48:15;;;;;;;14.02;11.90;;;3.60;99.90;;;;;;4986466;28;20187;-73
2022/12/03 10:50:50;;;;;;;12.90;11.07;;;3.80;99.90;;;;;;4990877;28;20178;-73
2022/12/03 10:53:16;;;;;;;14.82;11.65;;;3.70;99.90;;;;;;4992387;28;20181;-74
2022/12/03 10:55:43;;;;;;;15.82;12.20;;;3.80;99.90;;;;;;4990484;28;20205;-71
2022/12/03 10:58:21;;;;;;;12.43;11.10;;;3.80;99.90;;;;;;4986922;28;20559;-72
2022/12/03 11:00:49;;;;;;;11.80;10.45;;;3.60;99.90;;;;;;4983464;28;20652;-71
2022/12/03 11:03:22;;;;;;;13.02;11.60;;;3.60;99.90;;;;;;4985362;28;20174;-72
2022/12/03 11:05:48;;;;;;;13.57;10.98;;;3.70;99.90;;;;;;4982686;28;20209;-71
2022/12/03 11:08:33;;;;;;;12.70;10.55;;;3.70;99.90;;;;;;4985447;28;20177;-72
2022/12/03 11:11:05;;;;;;;12.40;10.93;;;3.80;99.90;;;;;;4985091;28;20177;-72
2022/12/03 11:13:33;;;;;;;13.05;10.73;;;3.90;99.90;;;;;;4981651;28;21501;-72
2022/12/03 11:16:00;;;;;;;13.52;10.48;;;3.80;99.90;;;;;;4978698;28;20211;-72
2022/12/03 11:18:37;;;;;;;11.52;9.95;;;3.90;99.90;;;;;;4984279;28;20196;-71
2022/12/03 11:21:13;;;;;;;12.95;10.38;;;4.00;99.90;;;;;;4989742;28;20181;-71
2022/12/03 11:23:41;;;;;;;13.82;10.75;;;4.00;99.90;;;;;;4988139;28;20196;-71
2022/12/03 11:26:07;;;;;;;12.18;10.15;;;3.90;99.90;;;;;;4991647;28;20205;-71
2022/12/03 11:28:35;;;;;;;14.13;10.70;;;3.90;99.90;;;;;;4991140;28;20178;-71
2022/12/03 11:31:08;;;;;;;11.85;9.73;;;3.90;99.90;;;;;;4986177;28;20240;-72
2022/12/03 11:33:39;;;;;;;13.00;11.57;;;4.00;99.90;;;;;;4990698;28;20197;-71
2022/12/03 11:36:04;;;;;;;11.65;10.40;;;4.00;99.90;;;;;;4986940;28;20197;-72
2022/12/03 11:38:36;;;;;;;12.80;10.70;;;4.00;99.90;;;;;;4987036;28;20531;-72
2022/12/03 11:41:14;;;;;;;10.55;9.43;;;3.90;99.90;;;;;;4980755;28;20662;-72
2022/12/03 11:43:51;;;;;;;14.43;11.15;;;3.70;99.90;;;;;;4981164;28;20278;-72
2022/12/03 11:46:17;;;;;;;15.18;10.88;;;3.60;99.90;;;;;;4986614;28;20295;-72
2022/12/03 11:48:44;;;;;;;13.02;10.77;;;3.70;99.90;;;;;;4989035;28;20645;-72
2022/12/03 11:51:15;;;;;;;12.77;10.20;;;3.80;99.90;;;;;;4990586;28;20204;-72
2022/12/03 11:53:42;;;;;;;13.63;11.00;;;3.80;99.90;;;;;;4991627;28;20232;-72
2022/12/03 11:56:17;;;;;;;13.02;11.10;;;3.90;99.90;;;;;;4977207;28;20362;-71
2022/12/03 11:58:44;;;;;;;12.73;10.70;;;4.00;99.90;;;;;;4981742;28;20261;-71
2022/12/03 12:01:11;;;;;;;11.98;9.95;;;4.00;99.90;;;;;;4989662;28;20190;-72
2022/12/03 12:03:46;;;;;;;13.10;10.75;;;3.80;99.90;;;;;;4982132;28;20552;-72
2022/12/03 12:06:15;;;;;;;12.05;10.13;;;3.80;99.90;;;;;;4986242;28;20239;-71
2022/12/03 12:08:54;;;;;;;12.23;10.30;;;3.70;99.90;;;;;;4991585;28;20232;-72
2022/12/03 12:11:25;;;;;;;13.18;10.68;;;3.80;99.90;;;;;;4995268;28;20177;-71
2022/12/03 12:13:51;;;;;;;13.73;11.25;;;3.90;99.90;;;;;;4993413;28;20178;-72
2022/12/03 12:16:49;;;;;;;14.43;11.15;;;3.90;99.90;;;;;;4994257;28;20237;-76
2022/12/03 12:19:33;;;;;;;12.68;10.55;;;3.90;99.90;;;;;;4998798;28;20882;-76
2022/12/03 12:22:23;;;;;;;13.13;10.52;;;3.80;99.90;;;;;;4988218;28;20197;-76
2022/12/03 12:24:58;;;;;;;14.68;11.27;;;3.90;99.90;;;;;;4985206;28;20182;-77
2022/12/03 12:27:43;;;;;;;14.40;10.65;;;3.90;99.90;;;;;;4984557;28;20216;-76
2022/12/03 12:30:14;;;;;;;13.55;11.15;;;4.00;99.90;;;;;;4988834;28;20273;-76
2022/12/03 12:32:46;;;;;;;13.07;11.10;;;4.10;99.90;;;;;;4987041;28;20269;-75
2022/12/03 12:35:15;;;;;;;11.95;9.82;;;4.20;99.90;;;;;;4977334;28;20554;-75
2022/12/03 12:37:58;;;;;;;14.90;12.57;;;4.20;99.90;;;;;;4982111;28;20221;-76
2022/12/03 12:40:27;;;;;;;15.38;11.05;;;4.00;99.90;;;;;;4984635;28;20190;-76
2022/12/03 12:42:58;;;;;;;15.40;11.48;;;4.00;99.90;;;;;;4986907;28;20213;-75
2022/12/03 12:45:35;;;;;;;13.73;11.73;;;4.00;99.90;;;;;;4986133;28;20542;-75
2022/12/03 12:48:22;;;;;;;14.70;11.68;;;4.10;99.90;;;;;;4986640;28;20194;-76
2022/12/03 12:50:51;;;;;;;14.88;12.15;;;4.00;99.90;;;;;;4988209;28;20804;-74
2022/12/03 12:53:24;;;;;;;13.75;10.98;;;4.00;99.90;;;;;;4986824;28;20182;-74
2022/12/03 12:56:14;;;;;;;14.60;11.10;;;3.90;99.90;;;;;;4988441;28;20689;-73
2022/12/03 12:58:40;;;;;;;15.93;11.35;;;3.90;99.90;;;;;;4981209;28;20202;-74
2022/12/03 13:01:16;;;;;;;13.45;10.95;;;4.00;99.90;;;;;;5000747;28;20173;-72
2022/12/03 13:03:42;;;;;;;15.65;11.80;;;4.10;99.90;;;;;;4989061;28;20672;-75